sensor_id;sensor_type;location;lat;lon;timestamp;P1;durP1;ratioP1;P2;durP2;ratioP2
9156;SDS011;4613;48.392;9.998;2022-12-07T00:02:49;3.95;;;2.78;;
9156;SDS011;4613;48.392;9.998;2022-12-07T00:05:38;2.97;;;2.30;;
9156;SDS011;4613;48.392;9.998;2022-12-07T00:08:27;2.63;;;2.42;;
9156;SDS011;4613;48.392;9.998;2022-12-07T00:11:20;3.47;;;2.72;;
9156;SDS011;4613;48.392;9.998;2022-12-07T00:14:11;2.90;;;2.50;;
9156;SDS011;4613;48.392;9.998;2022-12-07T00:17:02;2.30;;;2.10;;
9156;SDS011;4613;48.392;9.998;2022-12-07T00:19:51;3.50;;;2.40;;
9156;SDS011;4613;48.392;9.998;2022-12-07T00:22:41;2.42;;;2.20;;
9156;SDS011;4613;48.392;9.998;2022-12-07T00:25:31;2.90;;;2.28;;
9156;SDS011;4613;48.392;9.998;2022-12-07T00:28:20;2.30;;;2.08;;
9156;SDS011;4613;48.392;9.998;2022-12-07T00:31:11;2.50;;;2.30;;
9156;SDS011;4613;48.392;9.998;2022-12-07T00:34:01;3.60;;;2.13;;
9156;SDS011;4613;48.392;9.998;2022-12-07T00:36:50;3.25;;;2.25;;
9156;SDS011;4613;48.392;9.998;2022-12-07T00:39:40;3.22;;;2.50;;
9156;SDS011;4613;48.392;9.998;2022-12-07T00:42:29;2.38;;;2.17;;
9156;SDS011;4613;48.392;9.998;2022-12-07T00:45:19;2.50;;;2.10;;
9156;SDS011;4613;48.392;9.998;2022-12-07T00:48:09;5.75;;;2.53;;
9156;SDS011;4613;48.392;9.998;2022-12-07T00:50:58;3.17;;;2.70;;
9156;SDS011;4613;48.392;9.998;2022-12-07T00:53:47;2.47;;;2.17;;
9156;SDS011;4613;48.392;9.998;2022-12-07T00:56:37;2.95;;;2.28;;
9156;SDS011;4613;48.392;9.998;2022-12-07T00:59:26;2.55;;;2.35;;
9156;SDS011;4613;48.392;9.998;2022-12-07T01:02:15;3.28;;;2.47;;
9156;SDS011;4613;48.392;9.998;2022-12-07T01:05:06;2.38;;;2.17;;
9156;SDS011;4613;48.392;9.998;2022-12-07T01:07:55;2.90;;;2.30;;
9156;SDS011;4613;48.392;9.998;2022-12-07T01:10:46;3.53;;;2.38;;
9156;SDS011;4613;48.392;9.998;2022-12-07T01:13:36;2.78;;;2.38;;
9156;SDS011;4613;48.392;9.998;2022-12-07T01:16:25;2.83;;;2.53;;
9156;SDS011;4613;48.392;9.998;2022-12-07T01:19:17;3.15;;;2.30;;
9156;SDS011;4613;48.392;9.998;2022-12-07T01:22:06;3.08;;;2.47;;
9156;SDS011;4613;48.392;9.998;2022-12-07T01:24:55;3.20;;;2.40;;
9156;SDS011;4613;48.392;9.998;2022-12-07T01:27:45;3.17;;;2.40;;
9156;SDS011;4613;48.392;9.998;2022-12-07T01:30:35;2.60;;;2.40;;
9156;SDS011;4613;48.392;9.998;2022-12-07T01:33:26;2.78;;;2.40;;
9156;SDS011;4613;48.392;9.998;2022-12-07T01:36:18;3.08;;;2.67;;
9156;SDS011;4613;48.392;9.998;2022-12-07T01:39:08;3.38;;;2.70;;
9156;SDS011;4613;48.392;9.998;2022-12-07T01:41:58;3.50;;;2.40;;
9156;SDS011;4613;48.392;9.998;2022-12-07T01:48:16;3.60;;;2.95;;
9156;SDS011;4613;48.392;9.998;2022-12-07T01:51:09;3.45;;;3.03;;
9156;SDS011;4613;48.392;9.998;2022-12-07T01:54:00;3.85;;;2.60;;
9156;SDS011;4613;48.392;9.998;2022-12-07T01:56:51;3.60;;;3.10;;
9156;SDS011;4613;48.392;9.998;2022-12-07T01:59:43;4.18;;;3.00;;
9156;SDS011;4613;48.392;9.998;2022-12-07T02:05:56;4.22;;;2.85;;
9156;SDS011;4613;48.392;9.998;2022-12-07T02:08:48;6.32;;;3.20;;
9156;SDS011;4613;48.392;9.998;2022-12-07T02:11:38;3.35;;;2.85;;
9156;SDS011;4613;48.392;9.998;2022-12-07T02:14:28;4.10;;;3.28;;
9156;SDS011;4613;48.392;9.998;2022-12-07T02:29:54;4.95;;;3.50;;
9156;SDS011;4613;48.392;9.998;2022-12-07T02:36:16;4.18;;;3.30;;
9156;SDS011;4613;48.392;9.998;2022-12-07T02:39:18;5.13;;;3.25;;
9156;SDS011;4613;48.392;9.998;2022-12-07T02:42:15;3.78;;;3.25;;
9156;SDS011;4613;48.392;9.998;2022-12-07T02:45:11;5.85;;;3.78;;
9156;SDS011;4613;48.392;9.998;2022-12-07T02:48:04;4.32;;;3.30;;
9156;SDS011;4613;48.392;9.998;2022-12-07T02:50:55;3.67;;;3.03;;
9156;SDS011;4613;48.392;9.998;2022-12-07T02:53:44;4.30;;;3.20;;
9156;SDS011;4613;48.392;9.998;2022-12-07T03:12:29;3.20;;;2.80;;
9156;SDS011;4613;48.392;9.998;2022-12-07T03:15:28;5.32;;;3.60;;
9156;SDS011;4613;48.392;9.998;2022-12-07T03:18:40;4.63;;;3.50;;
9156;SDS011;4613;48.392;9.998;2022-12-07T03:21:38;4.75;;;3.40;;
9156;SDS011;4613;48.392;9.998;2022-12-07T03:24:33;4.60;;;3.33;;
9156;SDS011;4613;48.392;9.998;2022-12-07T03:27:49;3.58;;;2.75;;
9156;SDS011;4613;48.392;9.998;2022-12-07T03:30:49;3.22;;;2.92;;
9156;SDS011;4613;48.392;9.998;2022-12-07T03:36:43;3.78;;;2.97;;
9156;SDS011;4613;48.392;9.998;2022-12-07T03:39:58;4.07;;;2.90;;
9156;SDS011;4613;48.392;9.998;2022-12-07T03:42:55;4.25;;;3.03;;
9156;SDS011;4613;48.392;9.998;2022-12-07T03:45:56;4.38;;;2.97;;
9156;SDS011;4613;48.392;9.998;2022-12-07T03:48:59;4.28;;;3.42;;
9156;SDS011;4613;48.392;9.998;2022-12-07T03:52:03;3.55;;;2.97;;
9156;SDS011;4613;48.392;9.998;2022-12-07T03:57:50;5.15;;;3.45;;
9156;SDS011;4613;48.392;9.998;2022-12-07T04:00:42;3.63;;;3.08;;
9156;SDS011;4613;48.392;9.998;2022-12-07T04:03:32;4.28;;;3.17;;
9156;SDS011;4613;48.392;9.998;2022-12-07T04:06:21;4.10;;;3.28;;
9156;SDS011;4613;48.392;9.998;2022-12-07T04:09:10;3.50;;;2.47;;
9156;SDS011;4613;48.392;9.998;2022-12-07T04:12:00;3.33;;;2.72;;
9156;SDS011;4613;48.392;9.998;2022-12-07T04:14:49;3.95;;;3.42;;
9156;SDS011;4613;48.392;9.998;2022-12-07T04:17:39;4.53;;;3.28;;
9156;SDS011;4613;48.392;9.998;2022-12-07T04:20:28;6.35;;;4.00;;
9156;SDS011;4613;48.392;9.998;2022-12-07T04:23:18;3.88;;;2.92;;
9156;SDS011;4613;48.392;9.998;2022-12-07T04:26:07;4.35;;;2.80;;
9156;SDS011;4613;48.392;9.998;2022-12-07T04:28:57;4.38;;;2.67;;
9156;SDS011;4613;48.392;9.998;2022-12-07T04:31:47;3.03;;;2.55;;
9156;SDS011;4613;48.392;9.998;2022-12-07T04:34:36;3.45;;;2.53;;
9156;SDS011;4613;48.392;9.998;2022-12-07T04:37:26;3.58;;;2.47;;
9156;SDS011;4613;48.392;9.998;2022-12-07T04:40:15;2.60;;;2.33;;
9156;SDS011;4613;48.392;9.998;2022-12-07T04:43:05;3.90;;;3.28;;
9156;SDS011;4613;48.392;9.998;2022-12-07T04:45:54;3.13;;;2.70;;
9156;SDS011;4613;48.392;9.998;2022-12-07T04:48:43;3.03;;;2.60;;
9156;SDS011;4613;48.392;9.998;2022-12-07T04:51:32;2.97;;;2.67;;
9156;SDS011;4613;48.392;9.998;2022-12-07T04:54:22;3.60;;;2.75;;
9156;SDS011;4613;48.392;9.998;2022-12-07T04:57:11;3.55;;;2.50;;
9156;SDS011;4613;48.392;9.998;2022-12-07T05:00:01;3.67;;;2.78;;
9156;SDS011;4613;48.392;9.998;2022-12-07T05:02:50;2.63;;;2.30;;
9156;SDS011;4613;48.392;9.998;2022-12-07T05:05:40;2.83;;;2.60;;
9156;SDS011;4613;48.392;9.998;2022-12-07T05:08:30;3.67;;;2.60;;
9156;SDS011;4613;48.392;9.998;2022-12-07T05:11:20;3.08;;;2.45;;
9156;SDS011;4613;48.392;9.998;2022-12-07T05:14:28;2.53;;;2.33;;
9156;SDS011;4613;48.392;9.998;2022-12-07T05:17:20;4.32;;;3.00;;
9156;SDS011;4613;48.392;9.998;2022-12-07T05:20:09;3.58;;;2.40;;
9156;SDS011;4613;48.392;9.998;2022-12-07T05:22:59;3.38;;;2.63;;
9156;SDS011;4613;48.392;9.998;2022-12-07T05:25:48;2.45;;;2.00;;
9156;SDS011;4613;48.392;9.998;2022-12-07T05:28:39;8.38;;;2.58;;
9156;SDS011;4613;48.392;9.998;2022-12-07T05:31:28;2.42;;;2.20;;
9156;SDS011;4613;48.392;9.998;2022-12-07T05:34:18;4.05;;;2.50;;
9156;SDS011;4613;48.392;9.998;2022-12-07T05:37:08;2.83;;;2.35;;
9156;SDS011;4613;48.392;9.998;2022-12-07T05:39:58;4.32;;;2.40;;
9156;SDS011;4613;48.392;9.998;2022-12-07T05:42:47;2.55;;;2.10;;
9156;SDS011;4613;48.392;9.998;2022-12-07T05:45:36;2.58;;;2.38;;
9156;SDS011;4613;48.392;9.998;2022-12-07T05:48:26;2.95;;;2.15;;
9156;SDS011;4613;48.392;9.998;2022-12-07T05:51:16;2.40;;;2.15;;
9156;SDS011;4613;48.392;9.998;2022-12-07T05:54:05;2.67;;;2.10;;
9156;SDS011;4613;48.392;9.998;2022-12-07T05:56:55;1.98;;;1.80;;
9156;SDS011;4613;48.392;9.998;2022-12-07T05:59:44;2.95;;;2.63;;
9156;SDS011;4613;48.392;9.998;2022-12-07T06:02:36;2.92;;;2.55;;
9156;SDS011;4613;48.392;9.998;2022-12-07T06:05:25;2.78;;;2.20;;
9156;SDS011;4613;48.392;9.998;2022-12-07T06:08:15;2.53;;;2.13;;
9156;SDS011;4613;48.392;9.998;2022-12-07T06:11:05;3.10;;;2.38;;
9156;SDS011;4613;48.392;9.998;2022-12-07T06:14:13;3.47;;;2.80;;
9156;SDS011;4613;48.392;9.998;2022-12-07T06:17:03;2.45;;;2.22;;
9156;SDS011;4613;48.392;9.998;2022-12-07T06:19:53;2.47;;;2.28;;
9156;SDS011;4613;48.392;9.998;2022-12-07T06:22:43;3.45;;;2.95;;
9156;SDS011;4613;48.392;9.998;2022-12-07T06:25:32;3.53;;;3.00;;
9156;SDS011;4613;48.392;9.998;2022-12-07T06:28:21;3.65;;;2.83;;
9156;SDS011;4613;48.392;9.998;2022-12-07T06:31:10;3.47;;;2.47;;
9156;SDS011;4613;48.392;9.998;2022-12-07T06:34:01;3.00;;;2.28;;
9156;SDS011;4613;48.392;9.998;2022-12-07T06:36:52;4.13;;;3.10;;
9156;SDS011;4613;48.392;9.998;2022-12-07T06:39:43;3.15;;;2.63;;
9156;SDS011;4613;48.392;9.998;2022-12-07T06:42:34;4.50;;;2.53;;
9156;SDS011;4613;48.392;9.998;2022-12-07T06:45:24;3.20;;;2.35;;
9156;SDS011;4613;48.392;9.998;2022-12-07T06:48:13;3.45;;;2.53;;
9156;SDS011;4613;48.392;9.998;2022-12-07T06:51:03;2.33;;;2.13;;
9156;SDS011;4613;48.392;9.998;2022-12-07T06:53:52;3.28;;;2.67;;
9156;SDS011;4613;48.392;9.998;2022-12-07T06:56:42;2.70;;;2.30;;
9156;SDS011;4613;48.392;9.998;2022-12-07T06:59:32;2.90;;;2.10;;
9156;SDS011;4613;48.392;9.998;2022-12-07T07:02:21;2.92;;;2.58;;
9156;SDS011;4613;48.392;9.998;2022-12-07T07:05:17;4.63;;;3.00;;
9156;SDS011;4613;48.392;9.998;2022-12-07T07:08:06;3.95;;;3.00;;
9156;SDS011;4613;48.392;9.998;2022-12-07T07:10:56;2.67;;;2.42;;
9156;SDS011;4613;48.392;9.998;2022-12-07T07:13:45;2.95;;;2.47;;
9156;SDS011;4613;48.392;9.998;2022-12-07T07:16:36;3.97;;;2.80;;
9156;SDS011;4613;48.392;9.998;2022-12-07T07:19:25;3.22;;;2.50;;
9156;SDS011;4613;48.392;9.998;2022-12-07T07:22:14;4.03;;;2.40;;
9156;SDS011;4613;48.392;9.998;2022-12-07T07:25:04;4.20;;;3.10;;
9156;SDS011;4613;48.392;9.998;2022-12-07T07:27:53;3.33;;;2.45;;
9156;SDS011;4613;48.392;9.998;2022-12-07T07:30:43;2.63;;;2.10;;
9156;SDS011;4613;48.392;9.998;2022-12-07T07:33:33;3.60;;;2.25;;
9156;SDS011;4613;48.392;9.998;2022-12-07T07:36:22;3.35;;;2.70;;
9156;SDS011;4613;48.392;9.998;2022-12-07T07:39:11;2.97;;;2.30;;
9156;SDS011;4613;48.392;9.998;2022-12-07T07:42:03;3.42;;;2.70;;
9156;SDS011;4613;48.392;9.998;2022-12-07T07:44:55;5.10;;;3.47;;
9156;SDS011;4613;48.392;9.998;2022-12-07T07:47:45;3.38;;;2.75;;
9156;SDS011;4613;48.392;9.998;2022-12-07T07:50:34;3.38;;;2.92;;
9156;SDS011;4613;48.392;9.998;2022-12-07T07:53:23;3.28;;;2.58;;
9156;SDS011;4613;48.392;9.998;2022-12-07T07:56:13;4.10;;;2.83;;
9156;SDS011;4613;48.392;9.998;2022-12-07T07:59:03;4.53;;;3.58;;
9156;SDS011;4613;48.392;9.998;2022-12-07T08:01:53;5.60;;;2.90;;
9156;SDS011;4613;48.392;9.998;2022-12-07T08:04:43;4.28;;;3.10;;
9156;SDS011;4613;48.392;9.998;2022-12-07T08:07:32;4.75;;;3.47;;
9156;SDS011;4613;48.392;9.998;2022-12-07T08:10:22;4.73;;;2.93;;
9156;SDS011;4613;48.392;9.998;2022-12-07T08:13:11;4.97;;;2.73;;
9156;SDS011;4613;48.392;9.998;2022-12-07T08:16:06;4.20;;;2.73;;
9156;SDS011;4613;48.392;9.998;2022-12-07T08:18:57;5.23;;;2.83;;
9156;SDS011;4613;48.392;9.998;2022-12-07T08:21:46;4.23;;;2.70;;
9156;SDS011;4613;48.392;9.998;2022-12-07T08:24:36;4.40;;;2.83;;
9156;SDS011;4613;48.392;9.998;2022-12-07T08:27:27;2.57;;;2.37;;
9156;SDS011;4613;48.392;9.998;2022-12-07T08:30:17;6.80;;;2.80;;
9156;SDS011;4613;48.392;9.998;2022-12-07T08:33:06;3.67;;;2.57;;
9156;SDS011;4613;48.392;9.998;2022-12-07T08:36:01;5.30;;;2.47;;
9156;SDS011;4613;48.392;9.998;2022-12-07T08:38:51;3.77;;;2.57;;
9156;SDS011;4613;48.392;9.998;2022-12-07T08:41:41;4.53;;;2.80;;
9156;SDS011;4613;48.392;9.998;2022-12-07T08:44:30;2.50;;;2.27;;
9156;SDS011;4613;48.392;9.998;2022-12-07T08:47:19;2.40;;;2.00;;
9156;SDS011;4613;48.392;9.998;2022-12-07T08:50:09;2.90;;;2.23;;
9156;SDS011;4613;48.392;9.998;2022-12-07T08:53:00;3.17;;;2.30;;
9156;SDS011;4613;48.392;9.998;2022-12-07T08:55:51;2.93;;;2.37;;
9156;SDS011;4613;48.392;9.998;2022-12-07T08:58:40;3.10;;;2.13;;
9156;SDS011;4613;48.392;9.998;2022-12-07T09:01:30;3.53;;;2.03;;
9156;SDS011;4613;48.392;9.998;2022-12-07T09:04:20;2.88;;;2.40;;
9156;SDS011;4613;48.392;9.998;2022-12-07T09:07:09;2.50;;;2.30;;
9156;SDS011;4613;48.392;9.998;2022-12-07T09:09:59;3.47;;;2.50;;
9156;SDS011;4613;48.392;9.998;2022-12-07T09:12:49;2.40;;;2.20;;
9156;SDS011;4613;48.392;9.998;2022-12-07T09:15:38;3.97;;;1.95;;
9156;SDS011;4613;48.392;9.998;2022-12-07T09:18:28;3.53;;;2.63;;
9156;SDS011;4613;48.392;9.998;2022-12-07T09:21:17;2.80;;;2.33;;
9156;SDS011;4613;48.392;9.998;2022-12-07T09:24:07;3.28;;;2.20;;
9156;SDS011;4613;48.392;9.998;2022-12-07T09:26:57;3.72;;;2.35;;
9156;SDS011;4613;48.392;9.998;2022-12-07T09:29:46;3.40;;;2.20;;
9156;SDS011;4613;48.392;9.998;2022-12-07T09:32:36;2.03;;;1.80;;
9156;SDS011;4613;48.392;9.998;2022-12-07T09:35:26;2.33;;;2.13;;
9156;SDS011;4613;48.392;9.998;2022-12-07T09:38:16;2.30;;;1.90;;
9156;SDS011;4613;48.392;9.998;2022-12-07T09:41:06;2.90;;;2.10;;
9156;SDS011;4613;48.392;9.998;2022-12-07T09:43:58;3.17;;;2.22;;
9156;SDS011;4613;48.392;9.998;2022-12-07T09:46:54;3.78;;;2.35;;
9156;SDS011;4613;48.392;9.998;2022-12-07T09:49:45;3.53;;;2.13;;
9156;SDS011;4613;48.392;9.998;2022-12-07T09:52:34;3.35;;;2.40;;
9156;SDS011;4613;48.392;9.998;2022-12-07T09:55:26;3.88;;;2.50;;
9156;SDS011;4613;48.392;9.998;2022-12-07T09:58:19;2.92;;;2.50;;
9156;SDS011;4613;48.392;9.998;2022-12-07T10:01:16;4.93;;;2.42;;
9156;SDS011;4613;48.392;9.998;2022-12-07T10:07:04;2.47;;;1.90;;
9156;SDS011;4613;48.392;9.998;2022-12-07T10:09:54;1.70;;;1.30;;
9156;SDS011;4613;48.392;9.998;2022-12-07T10:12:53;1.60;;;1.30;;
9156;SDS011;4613;48.392;9.998;2022-12-07T10:15:55;1.13;;;1.03;;
9156;SDS011;4613;48.392;9.998;2022-12-07T10:18:45;2.37;;;1.90;;
9156;SDS011;4613;48.392;9.998;2022-12-07T10:21:34;1.70;;;1.60;;
9156;SDS011;4613;48.392;9.998;2022-12-07T10:24:24;2.37;;;1.40;;
9156;SDS011;4613;48.392;9.998;2022-12-07T10:27:26;2.17;;;1.60;;
9156;SDS011;4613;48.392;9.998;2022-12-07T10:30:20;2.70;;;1.60;;
9156;SDS011;4613;48.392;9.998;2022-12-07T10:36:19;2.00;;;1.80;;
9156;SDS011;4613;48.392;9.998;2022-12-07T10:39:16;2.17;;;1.80;;
9156;SDS011;4613;48.392;9.998;2022-12-07T10:42:15;1.87;;;1.53;;
9156;SDS011;4613;48.392;9.998;2022-12-07T10:45:17;2.03;;;1.87;;
9156;SDS011;4613;48.392;9.998;2022-12-07T11:01:01;2.07;;;1.30;;
9156;SDS011;4613;48.392;9.998;2022-12-07T11:13:52;1.70;;;1.30;;
9156;SDS011;4613;48.392;9.998;2022-12-07T11:26:08;2.07;;;1.23;;
9156;SDS011;4613;48.392;9.998;2022-12-07T11:38:43;1.17;;;1.00;;
9156;SDS011;4613;48.392;9.998;2022-12-07T11:42:15;1.33;;;1.23;;
9156;SDS011;4613;48.392;9.998;2022-12-07T11:45:14;2.37;;;1.30;;
9156;SDS011;4613;48.392;9.998;2022-12-07T11:48:22;1.30;;;1.20;;
9156;SDS011;4613;48.392;9.998;2022-12-07T11:51:20;1.23;;;1.13;;
9156;SDS011;4613;48.392;9.998;2022-12-07T11:54:13;1.50;;;1.40;;
9156;SDS011;4613;48.392;9.998;2022-12-07T11:57:12;1.30;;;1.20;;
9156;SDS011;4613;48.392;9.998;2022-12-07T12:00:17;1.50;;;1.40;;
9156;SDS011;4613;48.392;9.998;2022-12-07T12:06:01;1.27;;;1.17;;
9156;SDS011;4613;48.392;9.998;2022-12-07T12:08:54;1.43;;;1.33;;
9156;SDS011;4613;48.392;9.998;2022-12-07T12:15:09;1.13;;;1.03;;
9156;SDS011;4613;48.392;9.998;2022-12-07T12:18:26;0.90;;;0.90;;
9156;SDS011;4613;48.392;9.998;2022-12-07T12:21:26;2.03;;;1.37;;
9156;SDS011;4613;48.392;9.998;2022-12-07T12:24:19;1.30;;;1.20;;
9156;SDS011;4613;48.392;9.998;2022-12-07T12:27:33;2.47;;;1.53;;
9156;SDS011;4613;48.392;9.998;2022-12-07T12:33:26;1.10;;;1.00;;
9156;SDS011;4613;48.392;9.998;2022-12-07T12:39:19;1.40;;;1.20;;
9156;SDS011;4613;48.392;9.998;2022-12-07T12:42:18;1.27;;;1.17;;
9156;SDS011;4613;48.392;9.998;2022-12-07T12:45:19;1.33;;;0.93;;
9156;SDS011;4613;48.392;9.998;2022-12-07T12:48:29;1.30;;;1.20;;
9156;SDS011;4613;48.392;9.998;2022-12-07T12:51:37;1.10;;;1.00;;
9156;SDS011;4613;48.392;9.998;2022-12-07T12:57:31;1.97;;;1.23;;
9156;SDS011;4613;48.392;9.998;2022-12-07T13:00:23;1.73;;;1.17;;
9156;SDS011;4613;48.392;9.998;2022-12-07T13:03:22;1.10;;;1.03;;
9156;SDS011;4613;48.392;9.998;2022-12-07T13:06:20;1.00;;;1.00;;
9156;SDS011;4613;48.392;9.998;2022-12-07T13:09:28;1.33;;;1.10;;
9156;SDS011;4613;48.392;9.998;2022-12-07T13:12:20;1.30;;;1.20;;
9156;SDS011;4613;48.392;9.998;2022-12-07T13:15:30;1.00;;;1.00;;
9156;SDS011;4613;48.392;9.998;2022-12-07T13:21:54;1.43;;;1.13;;
9156;SDS011;4613;48.392;9.998;2022-12-07T13:24:38;1.10;;;1.00;;
9156;SDS011;4613;48.392;9.998;2022-12-07T13:27:27;1.10;;;1.00;;
9156;SDS011;4613;48.392;9.998;2022-12-07T13:30:18;1.13;;;1.00;;
9156;SDS011;4613;48.392;9.998;2022-12-07T13:33:10;1.00;;;1.00;;
9156;SDS011;4613;48.392;9.998;2022-12-07T13:36:00;1.87;;;1.33;;
9156;SDS011;4613;48.392;9.998;2022-12-07T13:38:51;1.33;;;1.23;;
9156;SDS011;4613;48.392;9.998;2022-12-07T13:41:49;0.90;;;0.90;;
9156;SDS011;4613;48.392;9.998;2022-12-07T13:44:40;1.98;;;0.98;;
9156;SDS011;4613;48.392;9.998;2022-12-07T13:47:31;1.67;;;1.25;;
9156;SDS011;4613;48.392;9.998;2022-12-07T13:50:28;1.02;;;0.98;;
9156;SDS011;4613;48.392;9.998;2022-12-07T13:53:22;2.40;;;1.30;;
9156;SDS011;4613;48.392;9.998;2022-12-07T13:56:12;1.23;;;0.93;;
9156;SDS011;4613;48.392;9.998;2022-12-07T13:59:03;1.25;;;1.15;;
9156;SDS011;4613;48.392;9.998;2022-12-07T14:01:56;1.17;;;1.08;;
9156;SDS011;4613;48.392;9.998;2022-12-07T14:04:45;0.87;;;0.87;;
9156;SDS011;4613;48.392;9.998;2022-12-07T14:07:34;1.20;;;1.10;;
9156;SDS011;4613;48.392;9.998;2022-12-07T14:10:32;1.38;;;1.08;;
9156;SDS011;4613;48.392;9.998;2022-12-07T14:16:36;5.93;;;1.45;;
9156;SDS011;4613;48.392;9.998;2022-12-07T14:19:42;1.88;;;1.50;;
9156;SDS011;4613;48.392;9.998;2022-12-07T14:22:53;1.10;;;1.10;;
9156;SDS011;4613;48.392;9.998;2022-12-07T14:25:44;1.85;;;1.30;;
9156;SDS011;4613;48.392;9.998;2022-12-07T14:28:36;1.50;;;1.25;;
9156;SDS011;4613;48.392;9.998;2022-12-07T14:31:26;1.77;;;1.23;;
9156;SDS011;4613;48.392;9.998;2022-12-07T14:34:16;1.25;;;1.15;;
9156;SDS011;4613;48.392;9.998;2022-12-07T14:37:07;2.63;;;1.33;;
9156;SDS011;4613;48.392;9.998;2022-12-07T14:39:58;1.13;;;1.10;;
9156;SDS011;4613;48.392;9.998;2022-12-07T14:42:49;2.63;;;1.73;;
9156;SDS011;4613;48.392;9.998;2022-12-07T14:45:42;1.30;;;1.20;;
9156;SDS011;4613;48.392;9.998;2022-12-07T14:48:31;1.20;;;1.10;;
9156;SDS011;4613;48.392;9.998;2022-12-07T14:51:21;1.23;;;1.00;;
9156;SDS011;4613;48.392;9.998;2022-12-07T14:54:13;1.25;;;1.15;;
9156;SDS011;4613;48.392;9.998;2022-12-07T14:57:08;1.20;;;1.10;;
9156;SDS011;4613;48.392;9.998;2022-12-07T14:59:58;2.00;;;1.00;;
9156;SDS011;4613;48.392;9.998;2022-12-07T15:02:48;1.90;;;1.35;;
9156;SDS011;4613;48.392;9.998;2022-12-07T15:05:38;2.88;;;1.00;;
9156;SDS011;4613;48.392;9.998;2022-12-07T15:08:28;1.30;;;1.20;;
9156;SDS011;4613;48.392;9.998;2022-12-07T15:11:18;1.00;;;1.00;;
9156;SDS011;4613;48.392;9.998;2022-12-07T15:14:07;1.73;;;1.27;;
9156;SDS011;4613;48.392;9.998;2022-12-07T15:16:57;1.55;;;1.45;;
9156;SDS011;4613;48.392;9.998;2022-12-07T15:19:46;1.40;;;1.20;;
9156;SDS011;4613;48.392;9.998;2022-12-07T15:22:36;1.33;;;1.20;;
9156;SDS011;4613;48.392;9.998;2022-12-07T15:25:25;0.98;;;0.98;;
9156;SDS011;4613;48.392;9.998;2022-12-07T15:28:17;1.25;;;1.15;;
9156;SDS011;4613;48.392;9.998;2022-12-07T15:31:14;1.55;;;1.10;;
9156;SDS011;4613;48.392;9.998;2022-12-07T15:34:04;1.50;;;1.33;;
9156;SDS011;4613;48.392;9.998;2022-12-07T15:36:53;1.30;;;1.20;;
9156;SDS011;4613;48.392;9.998;2022-12-07T15:39:43;1.65;;;1.30;;
9156;SDS011;4613;48.392;9.998;2022-12-07T15:42:32;1.63;;;1.30;;
9156;SDS011;4613;48.392;9.998;2022-12-07T15:45:21;1.13;;;0.98;;
9156;SDS011;4613;48.392;9.998;2022-12-07T15:48:10;1.27;;;1.17;;
9156;SDS011;4613;48.392;9.998;2022-12-07T15:51:03;1.20;;;1.10;;
9156;SDS011;4613;48.392;9.998;2022-12-07T15:53:54;1.30;;;1.10;;
9156;SDS011;4613;48.392;9.998;2022-12-07T15:56:45;2.35;;;1.17;;
9156;SDS011;4613;48.392;9.998;2022-12-07T15:59:35;1.20;;;1.15;;
9156;SDS011;4613;48.392;9.998;2022-12-07T16:02:30;1.40;;;1.27;;
9156;SDS011;4613;48.392;9.998;2022-12-07T16:05:19;1.67;;;1.50;;
9156;SDS011;4613;48.392;9.998;2022-12-07T16:08:08;2.00;;;1.35;;
9156;SDS011;4613;48.392;9.998;2022-12-07T16:10:58;1.27;;;1.08;;
9156;SDS011;4613;48.392;9.998;2022-12-07T16:13:47;1.17;;;1.08;;
9156;SDS011;4613;48.392;9.998;2022-12-07T16:16:36;1.52;;;1.27;;
9156;SDS011;4613;48.392;9.998;2022-12-07T16:19:26;1.45;;;1.10;;
9156;SDS011;4613;48.392;9.998;2022-12-07T16:22:15;1.45;;;1.35;;
9156;SDS011;4613;48.392;9.998;2022-12-07T16:25:05;2.38;;;1.65;;
9156;SDS011;4613;48.392;9.998;2022-12-07T16:27:55;2.95;;;1.60;;
9156;SDS011;4613;48.392;9.998;2022-12-07T16:30:45;1.40;;;1.30;;
9156;SDS011;4613;48.392;9.998;2022-12-07T16:33:34;1.85;;;1.40;;
9156;SDS011;4613;48.392;9.998;2022-12-07T16:36:24;1.35;;;1.23;;
9156;SDS011;4613;48.392;9.998;2022-12-07T16:39:16;4.15;;;1.60;;
9156;SDS011;4613;48.392;9.998;2022-12-07T16:42:06;3.00;;;1.85;;
9156;SDS011;4613;48.392;9.998;2022-12-07T16:44:56;1.55;;;1.45;;
9156;SDS011;4613;48.392;9.998;2022-12-07T16:47:46;2.53;;;1.55;;
9156;SDS011;4613;48.392;9.998;2022-12-07T16:50:38;1.85;;;1.65;;
9156;SDS011;4613;48.392;9.998;2022-12-07T16:53:28;2.95;;;1.50;;
9156;SDS011;4613;48.392;9.998;2022-12-07T16:56:18;2.45;;;1.80;;
9156;SDS011;4613;48.392;9.998;2022-12-07T16:59:08;2.45;;;1.50;;
9156;SDS011;4613;48.392;9.998;2022-12-07T17:01:58;5.70;;;1.60;;
9156;SDS011;4613;48.392;9.998;2022-12-07T17:04:48;1.90;;;1.40;;
9156;SDS011;4613;48.392;9.998;2022-12-07T17:07:37;1.60;;;1.48;;
9156;SDS011;4613;48.392;9.998;2022-12-07T17:10:27;2.17;;;1.50;;
9156;SDS011;4613;48.392;9.998;2022-12-07T17:13:17;1.58;;;1.48;;
9156;SDS011;4613;48.392;9.998;2022-12-07T17:16:25;1.90;;;1.70;;
9156;SDS011;4613;48.392;9.998;2022-12-07T17:19:16;2.95;;;1.80;;
9156;SDS011;4613;48.392;9.998;2022-12-07T17:22:06;1.77;;;1.58;;
9156;SDS011;4613;48.392;9.998;2022-12-07T17:24:55;1.88;;;1.63;;
9156;SDS011;4613;48.392;9.998;2022-12-07T17:27:44;4.07;;;1.98;;
9156;SDS011;4613;48.392;9.998;2022-12-07T17:30:34;2.92;;;2.08;;
9156;SDS011;4613;48.392;9.998;2022-12-07T17:33:24;2.70;;;2.20;;
9156;SDS011;4613;48.392;9.998;2022-12-07T17:36:14;3.55;;;2.20;;
9156;SDS011;4613;48.392;9.998;2022-12-07T17:39:15;2.30;;;2.03;;
9156;SDS011;4613;48.392;9.998;2022-12-07T17:42:07;2.67;;;2.10;;
9156;SDS011;4613;48.392;9.998;2022-12-07T17:45:16;3.63;;;2.63;;
9156;SDS011;4613;48.392;9.998;2022-12-07T17:48:06;2.25;;;2.05;;
9156;SDS011;4613;48.392;9.998;2022-12-07T17:50:58;2.15;;;1.95;;
9156;SDS011;4613;48.392;9.998;2022-12-07T17:54:07;2.75;;;2.17;;
9156;SDS011;4613;48.392;9.998;2022-12-07T17:56:57;3.53;;;2.40;;
9156;SDS011;4613;48.392;9.998;2022-12-07T17:59:46;3.05;;;2.20;;
9156;SDS011;4613;48.392;9.998;2022-12-07T18:02:36;2.55;;;1.90;;
9156;SDS011;4613;48.392;9.998;2022-12-07T18:05:26;2.22;;;2.03;;
9156;SDS011;4613;48.392;9.998;2022-12-07T18:08:15;2.53;;;2.13;;
9156;SDS011;4613;48.392;9.998;2022-12-07T18:11:05;2.95;;;1.85;;
9156;SDS011;4613;48.392;9.998;2022-12-07T18:13:55;4.70;;;3.20;;
9156;SDS011;4613;48.392;9.998;2022-12-07T18:16:44;4.13;;;2.70;;
9156;SDS011;4613;48.392;9.998;2022-12-07T18:19:34;4.00;;;2.60;;
9156;SDS011;4613;48.392;9.998;2022-12-07T18:22:25;4.20;;;2.65;;
9156;SDS011;4613;48.392;9.998;2022-12-07T18:25:14;2.50;;;1.95;;
9156;SDS011;4613;48.392;9.998;2022-12-07T18:28:03;2.53;;;2.10;;
9156;SDS011;4613;48.392;9.998;2022-12-07T18:30:53;3.70;;;2.03;;
9156;SDS011;4613;48.392;9.998;2022-12-07T18:33:43;3.83;;;2.45;;
9156;SDS011;4613;48.392;9.998;2022-12-07T18:36:33;2.40;;;1.88;;
9156;SDS011;4613;48.392;9.998;2022-12-07T18:39:23;3.20;;;2.30;;
9156;SDS011;4613;48.392;9.998;2022-12-07T18:42:12;2.55;;;2.25;;
9156;SDS011;4613;48.392;9.998;2022-12-07T18:45:02;2.40;;;1.83;;
9156;SDS011;4613;48.392;9.998;2022-12-07T18:47:53;4.85;;;2.60;;
9156;SDS011;4613;48.392;9.998;2022-12-07T18:50:43;5.70;;;3.63;;
9156;SDS011;4613;48.392;9.998;2022-12-07T18:53:33;5.25;;;3.25;;
9156;SDS011;4613;48.392;9.998;2022-12-07T18:56:24;2.95;;;2.35;;
9156;SDS011;4613;48.392;9.998;2022-12-07T18:59:19;5.80;;;2.53;;
9156;SDS011;4613;48.392;9.998;2022-12-07T19:02:27;2.72;;;2.25;;
9156;SDS011;4613;48.392;9.998;2022-12-07T19:05:17;3.28;;;2.50;;
9156;SDS011;4613;48.392;9.998;2022-12-07T19:08:07;3.67;;;2.20;;
9156;SDS011;4613;48.392;9.998;2022-12-07T19:10:57;3.13;;;2.50;;
9156;SDS011;4613;48.392;9.998;2022-12-07T19:14:06;3.33;;;2.42;;
9156;SDS011;4613;48.392;9.998;2022-12-07T19:16:57;4.05;;;2.25;;
9156;SDS011;4613;48.392;9.998;2022-12-07T19:19:49;2.42;;;2.22;;
9156;SDS011;4613;48.392;9.998;2022-12-07T19:22:39;2.95;;;2.40;;
9156;SDS011;4613;48.392;9.998;2022-12-07T19:25:29;3.95;;;2.70;;
9156;SDS011;4613;48.392;9.998;2022-12-07T19:28:18;3.13;;;2.55;;
9156;SDS011;4613;48.392;9.998;2022-12-07T19:31:08;2.53;;;2.33;;
9156;SDS011;4613;48.392;9.998;2022-12-07T19:33:59;2.95;;;2.63;;
9156;SDS011;4613;48.392;9.998;2022-12-07T19:36:49;3.22;;;2.55;;
9156;SDS011;4613;48.392;9.998;2022-12-07T19:39:39;3.90;;;2.67;;
9156;SDS011;4613;48.392;9.998;2022-12-07T19:42:29;3.70;;;2.63;;
9156;SDS011;4613;48.392;9.998;2022-12-07T19:45:22;3.17;;;2.75;;